createdAt,value
2023-03-28T00:00:35.392Z,59.83
2023-03-28T00:01:35.382Z,59.29
2023-03-28T00:02:35.456Z,59.58
2023-03-28T00:03:35.563Z,59.26
2023-03-28T00:04:35.363Z,58.80
2023-03-28T00:05:35.537Z,58.99
2023-03-28T00:06:35.358Z,58.68
2023-03-28T00:07:35.369Z,58.98
2023-03-28T00:08:35.324Z,59.40
2023-03-28T00:09:35.332Z,58.82
2023-03-28T00:10:35.316Z,59.03
2023-03-28T00:11:35.315Z,58.78
2023-03-28T00:12:35.337Z,58.95
2023-03-28T00:13:35.303Z,59.15
2023-03-28T00:14:35.294Z,59.18
2023-03-28T00:15:35.304Z,59.31
2023-03-28T00:16:35.392Z,58.64
2023-03-28T00:17:35.327Z,49.26
2023-03-28T00:18:35.325Z,38.90
2023-03-28T00:19:35.257Z,41.59
2023-03-28T00:20:35.251Z,41.14
2023-03-28T00:21:35.239Z,42.11
2023-03-28T00:22:35.255Z,43.97
2023-03-28T00:23:35.222Z,38.09
2023-03-28T00:24:35.215Z,43.36
2023-03-28T00:25:35.199Z,48.01
2023-03-28T00:26:35.202Z,38.20
2023-03-28T00:27:35.212Z,42.54
2023-03-28T00:28:35.199Z,38.24
2023-03-28T00:29:35.170Z,43.09
2023-03-28T00:30:35.163Z,39.71
2023-03-28T00:31:35.464Z,58.73
2023-03-28T00:32:35.242Z,42.23
2023-03-28T00:33:35.148Z,50.67
2023-03-28T00:34:35.141Z,41.27
2023-03-28T00:35:35.148Z,40.79
2023-03-28T00:36:35.151Z,41.43
2023-03-28T00:37:35.137Z,51.52
2023-03-28T00:38:35.106Z,50.00
2023-03-28T00:39:35.097Z,46.63
2023-03-28T00:40:35.095Z,54.32
2023-03-28T00:41:35.077Z,46.36
2023-03-28T00:42:35.103Z,41.16
2023-03-28T00:43:35.061Z,45.78
2023-03-28T00:44:35.055Z,45.20
2023-03-28T00:45:35.051Z,52.23
2023-03-28T00:46:35.053Z,53.03
2023-03-28T00:47:35.086Z,54.39
2023-03-28T00:48:35.021Z,55.29
2023-03-28T00:49:35.019Z,56.01
2023-03-28T00:50:35.008Z,55.79
2023-03-28T00:51:35.009Z,55.12
2023-03-28T00:52:35.031Z,55.37
2023-03-28T00:53:34.987Z,55.91
2023-03-28T00:54:34.980Z,52.29
2023-03-28T00:55:34.973Z,40.62
2023-03-28T00:56:34.972Z,49.57
2023-03-28T00:57:34.985Z,44.06
2023-03-28T00:58:34.947Z,42.03
2023-03-28T00:59:34.944Z,40.79
2023-03-28T01:00:35.003Z,42.53
2023-03-28T01:01:34.956Z,49.17
2023-03-28T01:02:35.373Z,48.69
2023-03-28T01:03:35.087Z,48.40
2023-03-28T01:04:34.914Z,42.24
2023-03-28T01:05:34.897Z,49.82
2023-03-28T01:06:34.898Z,42.63
2023-03-28T01:07:34.924Z,46.39
2023-03-28T01:08:34.875Z,42.74
2023-03-28T01:09:34.870Z,50.00
2023-03-28T01:10:34.849Z,48.90
2023-03-28T01:11:35.847Z,61.07
2023-03-28T01:12:34.873Z,56.05
2023-03-28T01:13:34.857Z,54.95
2023-03-28T01:14:34.822Z,55.47
2023-03-28T01:15:34.813Z,54.82
2023-03-28T01:16:34.840Z,55.53
2023-03-28T01:17:34.864Z,56.83
2023-03-28T01:18:34.863Z,56.45
2023-03-28T01:19:34.784Z,56.88
2023-03-28T01:20:34.769Z,57.88
2023-03-28T01:21:34.776Z,57.47
2023-03-28T01:22:34.765Z,58.03
2023-03-28T01:23:34.794Z,57.93
2023-03-28T01:24:34.744Z,58.64
2023-03-28T01:25:34.743Z,55.76
2023-03-28T01:26:34.735Z,45.77
2023-03-28T01:27:34.717Z,41.61
2023-03-28T01:28:34.749Z,46.12
2023-03-28T01:29:34.707Z,38.97
2023-03-28T01:30:34.745Z,44.19
2023-03-28T01:31:34.730Z,44.82
2023-03-28T01:32:34.719Z,43.60
2023-03-28T01:33:34.695Z,44.98
2023-03-28T01:34:34.676Z,47.83
2023-03-28T01:35:34.681Z,49.73
2023-03-28T01:36:35.735Z,50.35
2023-03-28T01:37:34.661Z,47.43
2023-03-28T01:38:34.653Z,42.49
2023-03-28T01:39:34.627Z,55.08
2023-03-28T01:40:34.618Z,56.66
2023-03-28T01:41:34.618Z,57.84
2023-03-28T01:42:34.605Z,58.06
2023-03-28T01:43:34.638Z,60.24
2023-03-28T01:44:34.592Z,59.69
2023-03-28T01:45:34.625Z,59.17
2023-03-28T01:46:34.583Z,59.47
2023-03-28T01:47:34.591Z,59.61
2023-03-28T01:48:34.596Z,59.76
2023-03-28T01:49:34.558Z,59.76
2023-03-28T01:50:34.569Z,59.49
2023-03-28T01:51:34.541Z,59.16
2023-03-28T01:52:34.538Z,59.17
2023-03-28T01:53:34.546Z,59.15
2023-03-28T01:54:34.600Z,59.25
2023-03-28T01:55:41.881Z,59.37
2023-03-28T01:56:35.526Z,59.45
2023-03-28T01:57:34.520Z,59.44
2023-03-28T01:58:34.564Z,48.35
2023-03-28T01:59:34.476Z,46.70
2023-03-28T02:00:34.472Z,47.75
2023-03-28T02:01:34.490Z,37.92
2023-03-28T02:02:34.543Z,43.53
2023-03-28T02:03:34.559Z,38.17
2023-03-28T02:04:34.435Z,38.77
2023-03-28T02:05:34.435Z,45.18
2023-03-28T02:06:34.413Z,46.12
2023-03-28T02:07:34.415Z,46.29
2023-03-28T02:08:34.441Z,43.33
2023-03-28T02:09:34.388Z,44.15
2023-03-28T02:10:34.382Z,54.61
2023-03-28T02:11:34.381Z,55.61
2023-03-28T02:12:34.371Z,56.07
2023-03-28T02:13:34.405Z,60.36
2023-03-28T02:14:34.359Z,57.65
2023-03-28T02:15:34.345Z,57.43
2023-03-28T02:16:34.390Z,58.03
2023-03-28T02:17:34.362Z,57.75
2023-03-28T02:18:34.369Z,55.89
2023-03-28T02:19:34.370Z,47.57
2023-03-28T02:20:34.338Z,48.96
2023-03-28T02:21:34.313Z,60.13
2023-03-28T02:22:34.316Z,52.73
2023-03-28T02:23:34.325Z,57.46
2023-03-28T02:24:34.318Z,57.80
2023-03-28T02:25:34.282Z,59.44
2023-03-28T02:26:34.271Z,60.77
2023-03-28T02:27:34.271Z,61.40
2023-03-28T02:28:34.257Z,61.18
2023-03-28T02:29:34.272Z,59.74
2023-03-28T02:30:34.244Z,59.53
2023-03-28T02:31:34.291Z,59.30
2023-03-28T02:32:34.346Z,59.45
2023-03-28T02:33:34.226Z,59.11
2023-03-28T02:34:34.249Z,58.70
2023-03-28T02:35:34.216Z,59.27
2023-03-28T02:36:34.233Z,62.10
2023-03-28T02:37:34.183Z,59.00
2023-03-28T02:38:34.174Z,60.06
2023-03-28T02:39:34.199Z,59.41
2023-03-28T02:40:34.165Z,59.08
2023-03-28T02:41:34.157Z,59.62
2023-03-28T02:42:34.140Z,59.70
2023-03-28T02:43:34.143Z,58.98
2023-03-28T02:44:34.165Z,59.66
2023-03-28T02:45:34.213Z,52.92
2023-03-28T02:46:34.206Z,38.69
2023-03-28T02:47:34.127Z,42.73
2023-03-28T02:48:34.102Z,51.70
2023-03-28T02:49:47.307Z,53.57
2023-03-28T02:50:36.090Z,57.65
2023-03-28T02:51:34.082Z,49.16
2023-03-28T02:52:34.074Z,50.90
2023-03-28T02:53:34.068Z,49.55
2023-03-28T02:54:34.085Z,38.71
2023-03-28T02:55:34.043Z,48.88
2023-03-28T02:56:34.060Z,47.27
2023-03-28T02:57:34.052Z,50.33
2023-03-28T02:58:34.022Z,48.03
2023-03-28T02:59:34.041Z,48.45
2023-03-28T03:00:34.008Z,52.09
2023-03-28T03:01:34.065Z,48.92
2023-03-28T03:02:34.009Z,48.29
2023-03-28T03:03:34.051Z,48.03
2023-03-28T03:04:34.022Z,48.93
2023-03-28T03:05:33.967Z,52.11
2023-03-28T03:06:33.989Z,49.17
2023-03-28T03:07:33.964Z,45.25
2023-03-28T03:08:33.960Z,46.48
2023-03-28T03:09:33.962Z,51.19
2023-03-28T03:10:33.933Z,53.55
2023-03-28T03:11:33.975Z,53.61
2023-03-28T03:12:33.919Z,47.27
2023-03-28T03:13:33.912Z,51.82
2023-03-28T03:14:33.952Z,51.59
2023-03-28T03:15:33.901Z,55.61
2023-03-28T03:16:33.937Z,47.61
2023-03-28T03:17:33.902Z,49.49
2023-03-28T03:18:33.925Z,55.89
2023-03-28T03:19:33.902Z,50.81
2023-03-28T03:20:34.046Z,56.58
2023-03-28T03:21:33.853Z,57.99
2023-03-28T03:22:33.832Z,59.16
2023-03-28T03:23:33.839Z,57.29
2023-03-28T03:24:33.863Z,56.81
2023-03-28T03:25:33.846Z,58.39
2023-03-28T03:26:33.829Z,59.21
2023-03-28T03:27:33.798Z,57.50
2023-03-28T03:28:33.805Z,56.02
2023-03-28T03:29:38.913Z,52.61
2023-03-28T03:30:34.803Z,56.13
2023-03-28T03:31:33.818Z,53.50
2023-03-28T03:32:33.788Z,51.65
2023-03-28T03:33:33.754Z,54.86
2023-03-28T03:34:33.739Z,53.05
2023-03-28T03:35:33.794Z,57.27
2023-03-28T03:36:33.732Z,53.57
2023-03-28T03:37:33.729Z,56.62
2023-03-28T03:38:33.741Z,54.63
2023-03-28T03:39:33.734Z,57.47
2023-03-28T03:40:33.721Z,57.08
2023-03-28T03:41:33.704Z,58.33
2023-03-28T03:42:33.697Z,58.20
2023-03-28T03:43:33.668Z,60.13
2023-03-28T03:44:33.673Z,58.77
2023-03-28T03:45:33.680Z,58.42
2023-03-28T03:46:33.673Z,57.59
2023-03-28T03:47:33.656Z,57.93
2023-03-28T03:48:33.641Z,55.54
2023-03-28T03:49:33.637Z,49.71
2023-03-28T03:50:33.657Z,52.76
2023-03-28T03:51:33.618Z,54.16
2023-03-28T03:52:33.630Z,51.47
2023-03-28T03:53:33.596Z,54.09
2023-03-28T03:54:35.155Z,45.17
2023-03-28T03:55:33.617Z,52.41
2023-03-28T03:56:33.583Z,49.62
2023-03-28T03:57:33.580Z,49.31
2023-03-28T03:58:33.570Z,51.56
2023-03-28T03:59:33.566Z,49.44
2023-03-28T04:00:33.572Z,53.29
2023-03-28T04:01:33.543Z,52.71
2023-03-28T04:02:33.671Z,52.19
2023-03-28T04:03:33.570Z,56.43
2023-03-28T04:04:33.565Z,53.48
2023-03-28T04:05:33.540Z,52.82
2023-03-28T04:06:33.500Z,52.61
2023-03-28T04:07:33.485Z,48.28
2023-03-28T04:08:33.501Z,52.28
2023-03-28T04:09:33.478Z,54.18
2023-03-28T04:10:33.523Z,56.14
2023-03-28T04:11:33.463Z,52.52
2023-03-28T04:12:33.453Z,54.27
2023-03-28T04:13:33.452Z,55.68
2023-03-28T04:14:33.439Z,55.76
2023-03-28T04:15:33.461Z,57.10
2023-03-28T04:16:41.181Z,55.39
2023-03-28T04:17:34.451Z,56.23
2023-03-28T04:18:33.407Z,59.86
2023-03-28T04:19:33.403Z,53.10
2023-03-28T04:20:33.421Z,56.94
2023-03-28T04:21:33.375Z,55.24
2023-03-28T04:22:33.371Z,56.48
2023-03-28T04:23:35.268Z,54.83
2023-03-28T04:24:33.375Z,55.01
2023-03-28T04:25:33.473Z,57.25
2023-03-28T04:26:33.378Z,55.46
2023-03-28T04:27:33.394Z,56.50
2023-03-28T04:28:33.398Z,55.27
2023-03-28T04:29:33.406Z,56.66
2023-03-28T04:30:33.388Z,59.12
2023-03-28T04:31:33.336Z,58.56
2023-03-28T04:32:33.403Z,59.59
2023-03-28T04:33:33.364Z,60.13
2023-03-28T04:34:33.431Z,59.48
2023-03-28T04:35:33.377Z,59.33
2023-03-28T04:36:33.286Z,60.76
2023-03-28T04:37:33.271Z,60.57
2023-03-28T04:38:33.255Z,61.00
2023-03-28T04:39:33.251Z,60.94
2023-03-28T04:40:33.253Z,61.31
2023-03-28T04:41:33.507Z,62.13
2023-03-28T04:42:33.230Z,62.23
2023-03-28T04:43:33.220Z,60.83
2023-03-28T04:44:33.216Z,60.68
2023-03-28T04:45:33.298Z,56.44
2023-03-28T04:46:33.227Z,57.79
2023-03-28T04:47:33.225Z,58.85
2023-03-28T04:48:34.176Z,57.51
2023-03-28T04:49:33.173Z,58.68
2023-03-28T04:50:35.651Z,57.87
2023-03-28T04:51:33.176Z,56.38
2023-03-28T04:52:33.155Z,56.89
2023-03-28T04:53:33.140Z,58.51
2023-03-28T04:54:33.134Z,57.19
2023-03-28T04:55:33.129Z,57.67
2023-03-28T04:56:33.550Z,55.52
2023-03-28T04:57:33.104Z,56.97
2023-03-28T04:58:33.097Z,59.15
2023-03-28T04:59:33.140Z,57.93
2023-03-28T05:00:33.084Z,56.86
2023-03-28T05:01:33.121Z,54.61
2023-03-28T05:02:33.153Z,52.94
2023-03-28T05:03:33.122Z,57.77
2023-03-28T05:04:33.048Z,55.34
2023-03-28T05:05:33.036Z,59.22
2023-03-28T05:06:33.050Z,56.95
2023-03-28T05:07:33.016Z,55.90
2023-03-28T05:08:33.019Z,50.08
2023-03-28T05:09:33.017Z,59.35
2023-03-28T05:10:33.025Z,56.37
2023-03-28T05:11:34.016Z,56.45
2023-03-28T05:12:32.977Z,57.68
2023-03-28T05:13:32.969Z,56.81
2023-03-28T05:14:32.952Z,57.66
2023-03-28T05:15:32.957Z,58.69
2023-03-28T05:16:33.049Z,58.50
2023-03-28T05:17:32.976Z,57.11
2023-03-28T05:18:32.925Z,53.79
2023-03-28T05:19:32.925Z,58.86
2023-03-28T05:20:32.924Z,51.87
2023-03-28T05:21:32.937Z,51.65
2023-03-28T05:22:32.907Z,60.36
2023-03-28T05:23:32.890Z,57.01
2023-03-28T05:24:34.555Z,57.01
2023-03-28T05:25:32.880Z,54.54
2023-03-28T05:26:33.280Z,54.63
2023-03-28T05:27:32.876Z,56.73
2023-03-28T05:28:32.849Z,55.22
2023-03-28T05:29:32.843Z,55.95
2023-03-28T05:30:32.831Z,53.61
2023-03-28T05:31:32.915Z,58.11
2023-03-28T05:32:32.843Z,59.07
2023-03-28T05:33:32.812Z,59.48
2023-03-28T05:34:32.857Z,59.57
2023-03-28T05:35:32.822Z,59.84
2023-03-28T05:36:32.815Z,61.30
2023-03-28T05:37:32.809Z,60.81
2023-03-28T05:38:32.777Z,61.46
2023-03-28T05:39:32.777Z,60.55
2023-03-28T05:40:32.768Z,61.05
2023-03-28T05:41:32.780Z,61.09
2023-03-28T05:42:32.745Z,60.71
2023-03-28T05:43:32.742Z,62.21
2023-03-28T05:44:32.727Z,61.03
2023-03-28T05:45:32.745Z,60.64
2023-03-28T05:46:32.748Z,61.02
2023-03-28T05:47:32.766Z,61.09
2023-03-28T05:48:32.714Z,62.49
2023-03-28T05:49:32.690Z,60.76
2023-03-28T05:50:32.686Z,61.35
2023-03-28T05:51:32.709Z,60.62
2023-03-28T05:52:32.666Z,60.85
2023-03-28T05:53:32.710Z,60.57
2023-03-28T05:54:32.657Z,61.26
2023-03-28T05:55:34.405Z,60.55
2023-03-28T05:56:32.669Z,60.73
2023-03-28T05:57:32.632Z,61.40
2023-03-28T05:58:32.614Z,61.14
2023-03-28T05:59:32.626Z,60.53
2023-03-28T06:00:32.604Z,60.39
2023-03-28T06:01:32.634Z,60.80
2023-03-28T06:02:32.600Z,60.71
2023-03-28T06:03:32.646Z,60.45
2023-03-28T06:04:32.599Z,60.54
2023-03-28T06:05:32.597Z,61.46
2023-03-28T06:06:32.590Z,60.21
2023-03-28T06:07:42.124Z,60.53
2023-03-28T06:08:34.599Z,59.99
2023-03-28T06:09:32.560Z,60.05
2023-03-28T06:10:32.525Z,60.74
2023-03-28T06:11:32.569Z,54.39
2023-03-28T06:12:32.531Z,57.60
2023-03-28T06:13:32.513Z,54.38
2023-03-28T06:14:32.496Z,54.34
2023-03-28T06:15:32.515Z,55.14
2023-03-28T06:16:32.545Z,54.94
2023-03-28T06:17:32.506Z,57.46
2023-03-28T06:18:32.476Z,57.39
2023-03-28T06:19:32.479Z,55.96
2023-03-28T06:20:32.464Z,55.97
2023-03-28T06:21:32.738Z,57.95
2023-03-28T06:22:32.455Z,56.39
2023-03-28T06:23:32.453Z,52.33
2023-03-28T06:24:32.430Z,55.90
2023-03-28T06:25:32.425Z,54.73
2023-03-28T06:26:32.726Z,55.38
2023-03-28T06:27:32.406Z,53.51
2023-03-28T06:28:32.406Z,57.65
2023-03-28T06:29:32.383Z,59.32
2023-03-28T06:30:32.404Z,55.10
2023-03-28T06:31:32.441Z,53.87
2023-03-28T06:32:32.444Z,55.37
2023-03-28T06:33:32.359Z,56.80
2023-03-28T06:34:32.354Z,52.11
2023-03-28T06:35:32.381Z,58.13
2023-03-28T06:36:32.341Z,59.32
2023-03-28T06:37:32.384Z,57.39
2023-03-28T06:38:32.361Z,60.45
2023-03-28T06:39:32.309Z,59.63
2023-03-28T06:40:32.318Z,59.27
2023-03-28T06:41:32.301Z,59.08
2023-03-28T06:42:32.337Z,56.20
2023-03-28T06:43:32.284Z,56.93
2023-03-28T06:44:32.279Z,56.71
2023-03-28T06:45:32.292Z,50.44
2023-03-28T06:46:32.303Z,55.98
2023-03-28T06:47:32.292Z,59.05
2023-03-28T06:48:34.222Z,56.13
2023-03-28T06:49:32.233Z,55.86
2023-03-28T06:50:32.227Z,62.62
2023-03-28T06:51:32.224Z,54.79
2023-03-28T06:52:32.233Z,57.36
2023-03-28T06:53:32.205Z,53.43
2023-03-28T06:54:32.199Z,53.14
2023-03-28T06:55:32.186Z,57.53
2023-03-28T06:56:32.192Z,58.32
2023-03-28T06:57:32.236Z,53.45
2023-03-28T06:58:32.159Z,56.77
2023-03-28T06:59:32.170Z,57.07
2023-03-28T07:00:32.149Z,53.98
2023-03-28T07:01:32.180Z,53.46
2023-03-28T07:02:32.275Z,54.95
2023-03-28T07:03:32.236Z,52.51
2023-03-28T07:04:32.128Z,55.36
2023-03-28T07:05:32.118Z,56.66
2023-03-28T07:06:32.134Z,54.60
2023-03-28T07:07:32.128Z,54.76
2023-03-28T07:08:32.098Z,56.78
2023-03-28T07:09:32.090Z,59.47
2023-03-28T07:10:32.109Z,54.15
2023-03-28T07:11:32.068Z,54.43
2023-03-28T07:12:32.149Z,55.71
2023-03-28T07:13:32.059Z,52.28
2023-03-28T07:14:32.051Z,55.99
2023-03-28T07:15:32.056Z,55.03
2023-03-28T07:16:32.095Z,56.58
2023-03-28T07:17:32.132Z,56.34
2023-03-28T07:18:32.030Z,54.23
2023-03-28T07:19:32.021Z,55.94
2023-03-28T07:20:31.999Z,54.66
2023-03-28T07:21:31.986Z,55.82
2023-03-28T07:22:32.013Z,53.50
2023-03-28T07:23:31.979Z,54.70
2023-03-28T07:24:32.001Z,54.10
2023-03-28T07:25:31.970Z,50.19
2023-03-28T07:26:31.964Z,51.85
2023-03-28T07:27:31.974Z,57.77
2023-03-28T07:28:31.934Z,55.41
2023-03-28T07:29:31.951Z,57.48
2023-03-28T07:30:31.930Z,57.20
2023-03-28T07:31:31.982Z,50.49
2023-03-28T07:32:42.875Z,53.90
2023-03-28T07:33:37.277Z,56.01
2023-03-28T07:34:32.897Z,56.41
2023-03-28T07:35:31.950Z,55.33
2023-03-28T07:36:31.873Z,56.51
2023-03-28T07:37:31.904Z,54.02
2023-03-28T07:38:31.862Z,53.34
2023-03-28T07:39:31.853Z,56.12
2023-03-28T07:40:31.857Z,54.24
2023-03-28T07:41:31.870Z,56.88
2023-03-28T07:42:31.888Z,55.31
2023-03-28T07:43:31.815Z,56.74
2023-03-28T07:44:31.817Z,54.83
2023-03-28T07:45:31.815Z,56.14
2023-03-28T07:46:31.804Z,59.29
2023-03-28T07:47:31.857Z,56.16
2023-03-28T07:48:31.788Z,54.21
2023-03-28T07:49:31.781Z,56.32
2023-03-28T07:50:31.841Z,56.00
2023-03-28T07:51:31.760Z,53.53
2023-03-28T07:52:31.790Z,50.51
2023-03-28T07:53:31.758Z,55.06
2023-03-28T07:54:31.745Z,53.05
2023-03-28T07:55:35.122Z,51.87
2023-03-28T07:56:32.736Z,55.17
2023-03-28T07:57:31.750Z,55.29
2023-03-28T07:58:31.707Z,53.29
2023-03-28T07:59:31.704Z,52.47
2023-03-28T08:00:31.697Z,54.46
2023-03-28T08:01:31.705Z,52.79
2023-03-28T08:02:31.797Z,55.62
2023-03-28T08:03:31.735Z,53.98
2023-03-28T08:04:31.662Z,54.54
2023-03-28T08:05:31.691Z,55.10
2023-03-28T08:06:32.730Z,53.86
2023-03-28T08:07:32.666Z,53.06
2023-03-28T08:08:31.676Z,52.95
2023-03-28T08:09:31.626Z,55.69
2023-03-28T08:10:31.621Z,57.22
2023-03-28T08:11:31.619Z,54.42
2023-03-28T08:12:31.631Z,55.66
2023-03-28T08:13:31.602Z,53.70
2023-03-28T08:14:31.604Z,55.96
2023-03-28T08:15:31.603Z,53.83
2023-03-28T08:16:31.655Z,53.46
2023-03-28T08:17:31.701Z,50.75
2023-03-28T08:18:31.566Z,55.02
2023-03-28T08:19:31.558Z,56.48
2023-03-28T08:20:31.544Z,59.61
2023-03-28T08:21:31.536Z,53.60
2023-03-28T08:22:31.560Z,56.16
2023-03-28T08:23:31.530Z,54.63
2023-03-28T08:24:36.115Z,55.91
2023-03-28T08:25:33.501Z,58.37
2023-03-28T08:26:31.497Z,52.26
2023-03-28T08:27:31.521Z,54.50
2023-03-28T08:28:31.478Z,53.87
2023-03-28T08:29:31.483Z,50.71
2023-03-28T08:30:31.460Z,56.36
2023-03-28T08:31:31.515Z,55.60
2023-03-28T08:32:31.503Z,55.04
2023-03-28T08:33:31.441Z,55.46
2023-03-28T08:34:31.430Z,53.93
2023-03-28T08:35:31.435Z,52.89
2023-03-28T08:36:31.429Z,53.50
2023-03-28T08:37:31.438Z,58.82
2023-03-28T08:38:31.393Z,55.72
2023-03-28T08:39:32.394Z,50.83
2023-03-28T08:40:31.388Z,55.11
2023-03-28T08:41:31.376Z,54.29
2023-03-28T08:42:31.413Z,53.70
2023-03-28T08:43:31.360Z,53.33
2023-03-28T08:44:31.351Z,55.04
2023-03-28T08:45:31.379Z,53.11
2023-03-28T08:46:32.177Z,56.61
2023-03-28T08:47:31.403Z,54.25
2023-03-28T08:48:31.328Z,53.90
2023-03-28T08:49:31.320Z,52.50
2023-03-28T08:50:31.325Z,55.80
2023-03-28T08:51:31.297Z,60.00
2023-03-28T08:52:31.337Z,55.37
2023-03-28T08:53:31.294Z,54.37
2023-03-28T08:54:32.280Z,58.63
2023-03-28T08:55:31.268Z,59.78
2023-03-28T08:56:31.264Z,55.95
2023-03-28T08:57:31.259Z,53.41
2023-03-28T08:58:31.290Z,53.64
2023-03-28T08:59:31.244Z,53.03
2023-03-28T09:00:31.258Z,51.81
2023-03-28T09:01:31.268Z,51.19
2023-03-28T09:02:31.380Z,55.04
2023-03-28T09:03:31.312Z,57.23
2023-03-28T09:04:31.209Z,52.73
2023-03-28T09:05:31.248Z,52.69
2023-03-28T09:06:31.191Z,54.19
2023-03-28T09:07:31.188Z,53.42
2023-03-28T09:08:31.198Z,51.97
2023-03-28T09:09:31.168Z,52.46
2023-03-28T09:10:31.161Z,54.67
2023-03-28T09:11:31.161Z,51.95
2023-03-28T09:12:31.153Z,53.66
2023-03-28T09:13:31.172Z,55.11
2023-03-28T09:14:31.127Z,56.85
2023-03-28T09:15:31.126Z,52.99
2023-03-28T09:16:31.178Z,51.06
2023-03-28T09:17:31.138Z,55.26
2023-03-28T09:18:31.132Z,57.35
2023-03-28T09:19:40.673Z,54.09
2023-03-28T09:20:33.089Z,55.67
2023-03-28T09:21:31.095Z,54.79
2023-03-28T09:22:31.077Z,55.05
2023-03-28T09:23:31.085Z,58.47
2023-03-28T09:24:31.056Z,56.13
2023-03-28T09:25:31.044Z,54.07
2023-03-28T09:26:31.054Z,52.81
2023-03-28T09:27:31.045Z,53.23
2023-03-28T09:28:31.036Z,54.73
2023-03-28T09:29:31.028Z,52.98
2023-03-28T09:30:30.994Z,53.18
2023-03-28T09:31:31.058Z,55.64
2023-03-28T09:32:31.004Z,53.42
2023-03-28T09:33:31.010Z,54.66
2023-03-28T09:34:30.960Z,55.80
2023-03-28T09:35:30.961Z,53.68
2023-03-28T09:36:41.240Z,57.16
2023-03-28T09:37:32.964Z,56.95
2023-03-28T09:38:30.971Z,54.83
2023-03-28T09:39:30.929Z,54.05
2023-03-28T09:40:30.928Z,54.16
2023-03-28T09:41:30.915Z,54.78
2023-03-28T09:42:30.905Z,54.08
2023-03-28T09:43:30.923Z,54.97
2023-03-28T09:44:31.276Z,54.30
2023-03-28T09:45:30.947Z,57.32
2023-03-28T09:46:30.878Z,54.57
2023-03-28T09:47:31.030Z,54.91
2023-03-28T09:48:30.974Z,54.30
2023-03-28T09:49:30.887Z,56.40
2023-03-28T09:50:30.863Z,53.33
2023-03-28T09:51:30.840Z,50.55
2023-03-28T09:52:30.848Z,53.68
2023-03-28T09:53:32.943Z,54.15
2023-03-28T09:54:31.835Z,58.26
2023-03-28T09:55:30.828Z,52.69
2023-03-28T09:56:30.801Z,51.28
2023-03-28T09:57:30.806Z,55.50
2023-03-28T09:58:30.817Z,52.32
2023-03-28T09:59:30.801Z,56.39
2023-03-28T10:00:30.781Z,52.53
2023-03-28T10:01:30.788Z,54.05
2023-03-28T10:02:30.776Z,55.07
2023-03-28T10:03:30.747Z,56.51
2023-03-28T10:04:30.817Z,58.11
2023-03-28T10:05:30.743Z,54.65
2023-03-28T10:06:30.730Z,57.86
2023-03-28T10:07:30.743Z,54.88
2023-03-28T10:08:30.732Z,54.28
2023-03-28T10:09:30.724Z,55.65
2023-03-28T10:10:30.731Z,54.27
2023-03-28T10:11:30.683Z,56.08
2023-03-28T10:12:30.680Z,54.69
2023-03-28T10:13:30.686Z,52.84
2023-03-28T10:14:30.686Z,54.11
2023-03-28T10:15:31.697Z,53.76
2023-03-28T10:16:30.718Z,54.55
2023-03-28T10:17:30.661Z,56.26
2023-03-28T10:18:30.631Z,54.41
2023-03-28T10:19:30.656Z,55.87
2023-03-28T10:20:30.627Z,53.20
2023-03-28T10:21:30.614Z,53.64
2023-03-28T10:22:30.597Z,54.02
2023-03-28T10:23:30.596Z,51.76
2023-03-28T10:24:30.612Z,54.89
2023-03-28T10:25:30.578Z,52.54
2023-03-28T10:26:30.566Z,53.26
2023-03-28T10:27:30.564Z,54.04
2023-03-28T10:28:30.564Z,51.36
2023-03-28T10:29:30.677Z,52.97
2023-03-28T10:30:30.545Z,54.01
2023-03-28T10:31:30.646Z,54.51
2023-03-28T10:32:30.555Z,54.70
2023-03-28T10:33:30.515Z,55.11
2023-03-28T10:34:30.534Z,56.19
2023-03-28T10:35:30.547Z,54.25
2023-03-28T10:36:30.516Z,58.23
2023-03-28T10:37:30.501Z,58.97
2023-03-28T10:38:30.549Z,56.55
2023-03-28T10:39:30.529Z,56.95
2023-03-28T10:40:30.604Z,53.58
2023-03-28T10:41:30.459Z,56.34
2023-03-28T10:42:30.484Z,54.73
2023-03-28T10:43:30.468Z,59.27
2023-03-28T10:44:30.495Z,54.26
2023-03-28T10:45:30.448Z,54.92
2023-03-28T10:46:30.453Z,54.54
2023-03-28T10:47:30.464Z,55.98
2023-03-28T10:48:30.416Z,54.41
2023-03-28T10:49:30.425Z,54.99
2023-03-28T10:50:30.387Z,53.41
2023-03-28T10:51:30.381Z,52.22
2023-03-28T10:52:30.371Z,53.42
2023-03-28T10:53:30.361Z,56.55
2023-03-28T10:54:30.382Z,54.07
2023-03-28T10:55:30.347Z,55.48
2023-03-28T10:56:30.344Z,54.51
2023-03-28T10:57:30.337Z,52.51
2023-03-28T10:58:30.333Z,53.29
2023-03-28T10:59:30.347Z,52.60
2023-03-28T11:00:30.325Z,55.18
2023-03-28T11:01:32.668Z,55.46
2023-03-28T11:02:31.384Z,57.23
2023-03-28T11:03:30.429Z,52.03
2023-03-28T11:04:30.341Z,57.92
2023-03-28T11:05:30.277Z,54.66
2023-03-28T11:06:30.289Z,49.37
2023-03-28T11:07:31.020Z,53.83
2023-03-28T11:08:31.253Z,55.91
2023-03-28T11:09:30.274Z,58.13
2023-03-28T11:10:30.255Z,54.61
2023-03-28T11:11:30.226Z,53.13
2023-03-28T11:12:32.358Z,55.87
2023-03-28T11:13:32.222Z,49.42
2023-03-28T11:14:30.229Z,57.81
2023-03-28T11:15:30.205Z,52.55
2023-03-28T11:16:30.276Z,61.97
2023-03-28T11:17:30.207Z,56.08
2023-03-28T11:18:30.280Z,55.57
2023-03-28T11:19:31.197Z,55.19
2023-03-28T11:20:30.264Z,54.22
2023-03-28T11:21:30.157Z,55.48
2023-03-28T11:22:30.158Z,58.68
2023-03-28T11:23:30.146Z,56.98
2023-03-28T11:24:30.159Z,56.47
2023-03-28T11:25:30.122Z,57.60
2023-03-28T11:26:30.115Z,59.18
2023-03-28T11:27:30.131Z,53.58
2023-03-28T11:28:30.096Z,58.76
2023-03-28T11:29:40.475Z,54.37
2023-03-28T11:30:32.110Z,56.62
2023-03-28T11:31:30.116Z,52.04
2023-03-28T11:32:30.073Z,53.94
2023-03-28T11:33:30.163Z,56.45
2023-03-28T11:34:30.048Z,55.87
2023-03-28T11:35:30.130Z,53.42
2023-03-28T11:36:30.030Z,52.12
2023-03-28T11:37:30.033Z,55.70
2023-03-28T11:38:30.018Z,51.25
2023-03-28T11:39:30.009Z,58.16
2023-03-28T11:40:30.026Z,53.13
2023-03-28T11:41:29.994Z,53.01
2023-03-28T11:42:29.986Z,53.47
2023-03-28T11:43:29.989Z,57.19
2023-03-28T11:44:29.986Z,52.59
2023-03-28T11:45:46.807Z,56.16
2023-03-28T11:46:32.003Z,52.95
2023-03-28T11:47:29.987Z,55.64
2023-03-28T11:48:29.940Z,52.02
2023-03-28T11:49:29.946Z,52.67
2023-03-28T11:50:29.974Z,51.63
2023-03-28T11:51:29.920Z,51.88
2023-03-28T11:52:29.959Z,54.79
2023-03-28T11:53:29.919Z,51.63
2023-03-28T11:54:29.898Z,53.59
2023-03-28T11:55:29.917Z,53.93
2023-03-28T11:56:29.883Z,57.57
2023-03-28T11:57:29.867Z,47.77
2023-03-28T11:58:29.874Z,55.30
2023-03-28T11:59:29.865Z,53.24
2023-03-28T12:00:33.917Z,54.18
2023-03-28T12:01:30.945Z,55.92
2023-03-28T12:02:30.774Z,54.30
2023-03-28T12:03:29.913Z,55.86
2023-03-28T12:04:29.901Z,55.27
2023-03-28T12:05:29.829Z,52.90
2023-03-28T12:06:29.810Z,54.13
2023-03-28T12:07:29.793Z,53.17
2023-03-28T12:08:29.788Z,57.20
2023-03-28T12:09:29.774Z,52.02
2023-03-28T12:10:29.849Z,53.58
2023-03-28T12:11:29.759Z,55.56
2023-03-28T12:12:29.791Z,55.05
2023-03-28T12:13:29.743Z,55.90
2023-03-28T12:14:29.736Z,55.00
2023-03-28T12:15:29.748Z,55.02
2023-03-28T12:16:29.750Z,52.34
2023-03-28T12:17:29.733Z,56.28
2023-03-28T12:18:29.701Z,56.02
2023-03-28T12:19:29.706Z,59.02
2023-03-28T12:20:29.779Z,56.17
2023-03-28T12:21:29.763Z,55.31
2023-03-28T12:22:29.671Z,53.63
2023-03-28T12:23:29.683Z,57.98
2023-03-28T12:24:29.734Z,57.83
2023-03-28T12:25:29.689Z,52.87
2023-03-28T12:26:30.647Z,53.17
2023-03-28T12:27:29.653Z,54.38
2023-03-28T12:28:29.637Z,55.06
2023-03-28T12:29:29.623Z,55.57
2023-03-28T12:30:29.811Z,53.98
2023-03-28T12:31:29.660Z,58.08
2023-03-28T12:32:29.651Z,53.63
2023-03-28T12:33:29.607Z,56.45
2023-03-28T12:34:29.586Z,54.55
2023-03-28T12:35:29.735Z,53.93
2023-03-28T12:36:29.573Z,53.02
2023-03-28T12:37:29.571Z,56.07
2023-03-28T12:38:29.571Z,56.73
2023-03-28T12:39:29.554Z,58.11
2023-03-28T12:40:29.599Z,57.41
2023-03-28T12:41:29.679Z,57.29
2023-03-28T12:42:29.521Z,59.41
2023-03-28T12:43:29.539Z,55.16
2023-03-28T12:44:29.515Z,55.38
2023-03-28T12:45:29.536Z,56.06
2023-03-28T12:46:29.620Z,58.37
2023-03-28T12:47:29.523Z,55.78
2023-03-28T12:48:29.480Z,56.78
2023-03-28T12:49:29.469Z,55.60
2023-03-28T12:50:29.504Z,56.77
2023-03-28T12:51:29.453Z,55.23
2023-03-28T12:52:29.457Z,57.04